Date,TemperatureHighF,TemperatureAvgF,TemperatureLowF,DewpointHighF,DewpointAvgF,DewpointLowF,HumidityHigh,HumidityAvg,HumidityLow,PressureMaxIn,PressureMinIn,WindSpeedMaxMPH,WindSpeedAvgMPH,GustSpeedMaxMPH,PrecipitationSumIn
2014-2-1,23.2,6.8,-8.5,11.9,-0.2,-13.3,80,73,60,29.16,29.00,8,2,8,0.00
2014-2-2,13.3,6.4,-0.2,1.9,-1.0,-3.2,87,73,52,29.33,29.16,13,4,13,0.00
2014-2-3,13.3,13.3,13.3,-0.7,-0.7,-0.7,53,53,53,29.28,29.28,6,6,6,0.00
2014-2-4,13.3,13.3,13.3,-0.7,-0.7,-0.7,53,53,53,29.28,29.28,6,6,6,0.00
2014-2-5,13.3,13.3,13.3,-0.7,-0.7,-0.7,53,53,53,29.28,29.28,6,6,6,0.00
2014-2-6,13.3,13.3,13.3,-0.7,-0.7,-0.7,53,53,53,29.28,29.28,6,6,6,0.00
2014-2-7,13.3,13.3,13.3,-0.7,-0.7,-0.7,53,53,53,29.28,29.28,6,6,6,0.00
2014-2-8,16.2,11.8,7.9,5.3,3.5,-0.7,87,70,53,29.28,29.16,12,3,12,0.00
2014-2-9,21.9,9.5,-1.7,5.3,0.3,-11.4,88,67,45,29.34,29.15,17,6,17,0.00
2014-2-10,10.4,-1.2,-9.1,-7.8,-11.7,-15.5,73,61,42,29.50,29.33,7,3,16,0.08
2014-2-11,19.2,2.2,-13.2,-1.5,-8.9,-18.2,79,61,37,29.53,29.31,10,2,13,0.17
2014-2-12,24.0,10.1,2.3,11.5,2.8,-6.6,88,73,55,29.31,29.03,12,3,18,0.08
2014-2-13,23.7,16.0,2.8,23.2,12.8,0.1,98,87,74,29.02,28.53,10,3,20,0.00
2014-2-14,28.2,16.5,6.6,11.6,6.2,-1.3,83,64,45,29.04,28.63,21,8,21,0.00
2014-2-15,20.7,7.3,-6.3,11.0,-0.0,-10.3,90,73,48,29.11,28.76,10,3,10,0.08
2014-2-16,26.2,14.9,9.5,10.5,6.9,3.2,90,72,44,29.33,29.01,16,4,16,0.08
2014-2-17,24.1,18.5,9.9,22.9,16.4,4.1,97,91,77,29.31,28.78,16,4,16,0.00
2014-2-18,41.7,27.2,17.4,28.7,23.1,16.2,98,86,56,28.91,28.64,13,4,100,0.01
2014-2-19,127.9,36.3,25.0,99.9,23.4,20.3,82,61,39,28.95,28.71,15,6,15,0.00
2014-2-20,37.6,32.8,28.9,37.1,29.4,12.6,99,87,67,29.42,28.01,28,9,28,0.34
2014-2-21,34.2,20.3,15.3,32.9,14.8,7.3,99,79,69,29.21,28.02,36,20,36,0.01
2014-2-22,27.9,16.6,9.0,9.9,6.7,2.4,81,66,45,29.07,28.72,25,12,25,0.00
2014-2-23,23.9,12.1,3.2,4.3,1.3,-3.1,75,63,41,29.19,29.07,28,12,28,0.00
2014-2-24,18.0,9.9,3.7,1.7,-0.3,-2.4,75,63,46,29.27,29.18,21,8,21,0.00
2014-2-25,12.0,4.5,-8.1,-0.5,-6.6,-15.9,82,60,42,29.26,29.16,22,8,22,0.00
2014-2-26,14.0,3.1,-9.8,5.6,-8.8,-18.1,86,59,31,29.25,28.60,32,11,32,0.00
2014-2-27,6.3,-2.1,-14.3,-3.4,-17.5,-23.9,68,48,26,29.23,28.69,29,8,29,0.00
2014-2-28,13.1,0.7,-18.6,10.0,-6.4,-25.4,92,73,49,29.23,28.64,18,3,18,0.00